sensor_id;sensor_type;location;lat;lon;timestamp;P1;durP1;ratioP1;P2;durP2;ratioP2
22429;SDS011;11382;48.086;11.632;2023-02-23T00:02:21;15.18;;;9.35;;
22429;SDS011;11382;48.086;11.632;2023-02-23T00:04:49;17.33;;;9.40;;
22429;SDS011;11382;48.086;11.632;2023-02-23T00:07:17;14.95;;;8.35;;
22429;SDS011;11382;48.086;11.632;2023-02-23T00:09:49;14.82;;;8.32;;
22429;SDS011;11382;48.086;11.632;2023-02-23T00:12:18;17.92;;;9.23;;
22429;SDS011;11382;48.086;11.632;2023-02-23T00:14:46;18.77;;;9.43;;
22429;SDS011;11382;48.086;11.632;2023-02-23T00:17:14;14.48;;;9.10;;
22429;SDS011;11382;48.086;11.632;2023-02-23T00:19:43;16.02;;;8.80;;
22429;SDS011;11382;48.086;11.632;2023-02-23T00:22:14;14.25;;;8.45;;
22429;SDS011;11382;48.086;11.632;2023-02-23T00:24:43;15.73;;;9.02;;
22429;SDS011;11382;48.086;11.632;2023-02-23T00:27:16;20.48;;;9.43;;
22429;SDS011;11382;48.086;11.632;2023-02-23T00:29:47;19.30;;;9.52;;
22429;SDS011;11382;48.086;11.632;2023-02-23T00:32:16;20.98;;;10.23;;
22429;SDS011;11382;48.086;11.632;2023-02-23T00:34:45;16.58;;;9.15;;
22429;SDS011;11382;48.086;11.632;2023-02-23T00:37:15;16.52;;;9.55;;
22429;SDS011;11382;48.086;11.632;2023-02-23T00:39:47;16.40;;;9.52;;
22429;SDS011;11382;48.086;11.632;2023-02-23T00:42:16;16.38;;;8.90;;
22429;SDS011;11382;48.086;11.632;2023-02-23T00:44:44;16.08;;;9.02;;
22429;SDS011;11382;48.086;11.632;2023-02-23T00:47:14;15.02;;;9.07;;
22429;SDS011;11382;48.086;11.632;2023-02-23T00:49:42;19.95;;;9.50;;
22429;SDS011;11382;48.086;11.632;2023-02-23T00:52:10;18.00;;;9.20;;
22429;SDS011;11382;48.086;11.632;2023-02-23T00:54:40;15.30;;;9.18;;
22429;SDS011;11382;48.086;11.632;2023-02-23T00:57:09;15.20;;;9.15;;
22429;SDS011;11382;48.086;11.632;2023-02-23T00:59:43;16.20;;;8.95;;
22429;SDS011;11382;48.086;11.632;2023-02-23T01:02:13;17.13;;;9.65;;
22429;SDS011;11382;48.086;11.632;2023-02-23T01:04:42;14.23;;;9.15;;
22429;SDS011;11382;48.086;11.632;2023-02-23T01:07:10;16.17;;;9.43;;
22429;SDS011;11382;48.086;11.632;2023-02-23T01:09:38;16.30;;;9.10;;
22429;SDS011;11382;48.086;11.632;2023-02-23T01:12:07;16.42;;;9.02;;
22429;SDS011;11382;48.086;11.632;2023-02-23T01:14:35;21.40;;;10.10;;
22429;SDS011;11382;48.086;11.632;2023-02-23T01:17:05;20.25;;;9.93;;
22429;SDS011;11382;48.086;11.632;2023-02-23T01:19:35;14.38;;;8.82;;
22429;SDS011;11382;48.086;11.632;2023-02-23T01:22:03;17.15;;;9.15;;
22429;SDS011;11382;48.086;11.632;2023-02-23T01:24:31;17.17;;;9.75;;
22429;SDS011;11382;48.086;11.632;2023-02-23T01:27:02;14.85;;;8.93;;
22429;SDS011;11382;48.086;11.632;2023-02-23T01:29:32;26.33;;;11.48;;
22429;SDS011;11382;48.086;11.632;2023-02-23T01:32:00;18.23;;;10.00;;
22429;SDS011;11382;48.086;11.632;2023-02-23T01:34:31;19.73;;;10.43;;
22429;SDS011;11382;48.086;11.632;2023-02-23T01:36:59;18.75;;;11.80;;
22429;SDS011;11382;48.086;11.632;2023-02-23T01:39:28;18.42;;;11.20;;
22429;SDS011;11382;48.086;11.632;2023-02-23T01:41:58;19.20;;;10.65;;
22429;SDS011;11382;48.086;11.632;2023-02-23T01:47:46;21.00;;;11.45;;
22429;SDS011;11382;48.086;11.632;2023-02-23T01:50:16;21.60;;;12.00;;
22429;SDS011;11382;48.086;11.632;2023-02-23T01:52:46;21.65;;;12.65;;
22429;SDS011;11382;48.086;11.632;2023-02-23T01:55:18;23.65;;;11.95;;
22429;SDS011;11382;48.086;11.632;2023-02-23T01:57:51;22.05;;;12.82;;
22429;SDS011;11382;48.086;11.632;2023-02-23T02:00:22;22.42;;;12.32;;
22429;SDS011;11382;48.086;11.632;2023-02-23T02:02:53;23.58;;;13.15;;
22429;SDS011;11382;48.086;11.632;2023-02-23T02:05:23;22.92;;;12.27;;
22429;SDS011;11382;48.086;11.632;2023-02-23T02:07:51;21.13;;;11.75;;
22429;SDS011;11382;48.086;11.632;2023-02-23T02:10:25;22.80;;;12.65;;
22429;SDS011;11382;48.086;11.632;2023-02-23T02:13:06;25.48;;;12.73;;
22429;SDS011;11382;48.086;11.632;2023-02-23T02:18:20;27.00;;;13.68;;
22429;SDS011;11382;48.086;11.632;2023-02-23T02:21:02;28.70;;;14.90;;
22429;SDS011;11382;48.086;11.632;2023-02-23T02:24:01;25.67;;;13.65;;
22429;SDS011;11382;48.086;11.632;2023-02-23T02:30:07;24.55;;;13.85;;
22429;SDS011;11382;48.086;11.632;2023-02-23T02:39:35;25.77;;;13.70;;
22429;SDS011;11382;48.086;11.632;2023-02-23T02:42:15;26.25;;;13.38;;
22429;SDS011;11382;48.086;11.632;2023-02-23T02:44:50;25.88;;;14.25;;
22429;SDS011;11382;48.086;11.632;2023-02-23T02:47:24;24.80;;;13.95;;
22429;SDS011;11382;48.086;11.632;2023-02-23T02:49:58;21.05;;;12.60;;
22429;SDS011;11382;48.086;11.632;2023-02-23T02:52:34;24.02;;;14.80;;
22429;SDS011;11382;48.086;11.632;2023-02-23T02:55:10;25.88;;;13.52;;
22429;SDS011;11382;48.086;11.632;2023-02-23T02:57:42;24.90;;;13.88;;
22429;SDS011;11382;48.086;11.632;2023-02-23T03:00:15;23.63;;;13.20;;
22429;SDS011;11382;48.086;11.632;2023-02-23T03:03:04;23.88;;;14.32;;
22429;SDS011;11382;48.086;11.632;2023-02-23T03:05:52;24.48;;;13.63;;
22429;SDS011;11382;48.086;11.632;2023-02-23T03:08:42;22.40;;;13.05;;
22429;SDS011;11382;48.086;11.632;2023-02-23T03:11:35;28.77;;;12.80;;
22429;SDS011;11382;48.086;11.632;2023-02-23T03:14:25;22.85;;;13.00;;
22429;SDS011;11382;48.086;11.632;2023-02-23T03:17:20;24.60;;;13.73;;
22429;SDS011;11382;48.086;11.632;2023-02-23T03:20:16;24.40;;;12.63;;
22429;SDS011;11382;48.086;11.632;2023-02-23T03:23:08;23.60;;;13.45;;
22429;SDS011;11382;48.086;11.632;2023-02-23T03:26:04;20.95;;;12.05;;
22429;SDS011;11382;48.086;11.632;2023-02-23T03:28:57;25.90;;;14.15;;
22429;SDS011;11382;48.086;11.632;2023-02-23T03:31:50;26.58;;;13.77;;
22429;SDS011;11382;48.086;11.632;2023-02-23T03:34:45;24.17;;;13.57;;
22429;SDS011;11382;48.086;11.632;2023-02-23T03:37:37;24.52;;;13.80;;
22429;SDS011;11382;48.086;11.632;2023-02-23T03:40:27;31.83;;;14.57;;
22429;SDS011;11382;48.086;11.632;2023-02-23T03:43:18;27.40;;;15.20;;
22429;SDS011;11382;48.086;11.632;2023-02-23T03:46:07;22.65;;;14.35;;
22429;SDS011;11382;48.086;11.632;2023-02-23T03:48:58;25.45;;;14.27;;
22429;SDS011;11382;48.086;11.632;2023-02-23T03:51:48;27.08;;;13.60;;
22429;SDS011;11382;48.086;11.632;2023-02-23T03:54:40;24.38;;;13.18;;
22429;SDS011;11382;48.086;11.632;2023-02-23T03:57:30;24.58;;;13.23;;
22429;SDS011;11382;48.086;11.632;2023-02-23T04:00:22;26.63;;;12.55;;
22429;SDS011;11382;48.086;11.632;2023-02-23T04:03:12;23.67;;;13.35;;
22429;SDS011;11382;48.086;11.632;2023-02-23T04:06:02;25.33;;;15.20;;
22429;SDS011;11382;48.086;11.632;2023-02-23T04:08:50;26.02;;;15.00;;
22429;SDS011;11382;48.086;11.632;2023-02-23T04:11:39;28.02;;;14.35;;
22429;SDS011;11382;48.086;11.632;2023-02-23T04:14:32;26.58;;;14.68;;
22429;SDS011;11382;48.086;11.632;2023-02-23T04:17:06;24.80;;;13.85;;
22429;SDS011;11382;48.086;11.632;2023-02-23T04:19:36;23.30;;;13.20;;
22429;SDS011;11382;48.086;11.632;2023-02-23T04:22:04;24.02;;;13.60;;
22429;SDS011;11382;48.086;11.632;2023-02-23T04:24:32;23.25;;;13.15;;
22429;SDS011;11382;48.086;11.632;2023-02-23T04:27:00;26.42;;;14.48;;
22429;SDS011;11382;48.086;11.632;2023-02-23T04:29:36;24.77;;;14.25;;
22429;SDS011;11382;48.086;11.632;2023-02-23T04:32:04;27.05;;;14.68;;
22429;SDS011;11382;48.086;11.632;2023-02-23T04:34:34;27.90;;;14.50;;
22429;SDS011;11382;48.086;11.632;2023-02-23T04:37:05;28.10;;;14.15;;
22429;SDS011;11382;48.086;11.632;2023-02-23T04:39:33;27.35;;;14.35;;
22429;SDS011;11382;48.086;11.632;2023-02-23T04:42:01;25.63;;;14.35;;
22429;SDS011;11382;48.086;11.632;2023-02-23T04:44:30;23.92;;;14.02;;
22429;SDS011;11382;48.086;11.632;2023-02-23T04:46:58;29.90;;;15.20;;
22429;SDS011;11382;48.086;11.632;2023-02-23T04:49:32;24.02;;;14.80;;
22429;SDS011;11382;48.086;11.632;2023-02-23T04:52:00;23.27;;;13.10;;
22429;SDS011;11382;48.086;11.632;2023-02-23T04:54:28;24.80;;;13.43;;
22429;SDS011;11382;48.086;11.632;2023-02-23T04:56:56;26.05;;;13.75;;
22429;SDS011;11382;48.086;11.632;2023-02-23T04:59:24;23.83;;;13.60;;
22429;SDS011;11382;48.086;11.632;2023-02-23T05:01:53;29.38;;;13.18;;
22429;SDS011;11382;48.086;11.632;2023-02-23T05:04:21;23.55;;;12.68;;
22429;SDS011;11382;48.086;11.632;2023-02-23T05:06:51;21.42;;;12.40;;
22429;SDS011;11382;48.086;11.632;2023-02-23T05:09:21;25.58;;;13.15;;
22429;SDS011;11382;48.086;11.632;2023-02-23T05:11:52;27.25;;;13.82;;
22429;SDS011;11382;48.086;11.632;2023-02-23T05:14:22;20.42;;;12.13;;
22429;SDS011;11382;48.086;11.632;2023-02-23T05:16:50;22.25;;;12.93;;
22429;SDS011;11382;48.086;11.632;2023-02-23T05:19:20;21.27;;;12.80;;
22429;SDS011;11382;48.086;11.632;2023-02-23T05:21:48;20.33;;;11.98;;
22429;SDS011;11382;48.086;11.632;2023-02-23T05:24:19;24.42;;;12.98;;
22429;SDS011;11382;48.086;11.632;2023-02-23T05:26:47;21.42;;;11.45;;
22429;SDS011;11382;48.086;11.632;2023-02-23T05:29:15;25.17;;;13.25;;
22429;SDS011;11382;48.086;11.632;2023-02-23T05:31:43;24.05;;;12.35;;
22429;SDS011;11382;48.086;11.632;2023-02-23T05:34:13;24.08;;;13.05;;
22429;SDS011;11382;48.086;11.632;2023-02-23T05:36:42;32.88;;;14.45;;
22429;SDS011;11382;48.086;11.632;2023-02-23T05:39:10;24.63;;;12.23;;
22429;SDS011;11382;48.086;11.632;2023-02-23T05:41:39;24.45;;;12.27;;
22429;SDS011;11382;48.086;11.632;2023-02-23T05:44:08;21.65;;;11.95;;
22429;SDS011;11382;48.086;11.632;2023-02-23T05:46:36;26.13;;;12.68;;
22429;SDS011;11382;48.086;11.632;2023-02-23T05:49:04;24.05;;;12.18;;
22429;SDS011;11382;48.086;11.632;2023-02-23T05:51:33;20.85;;;11.95;;
22429;SDS011;11382;48.086;11.632;2023-02-23T05:54:01;23.00;;;13.23;;
22429;SDS011;11382;48.086;11.632;2023-02-23T05:56:29;19.98;;;11.82;;
22429;SDS011;11382;48.086;11.632;2023-02-23T05:59:01;25.88;;;12.63;;
22429;SDS011;11382;48.086;11.632;2023-02-23T06:01:30;23.25;;;11.75;;
22429;SDS011;11382;48.086;11.632;2023-02-23T06:04:01;18.80;;;11.77;;
22429;SDS011;11382;48.086;11.632;2023-02-23T06:06:36;21.75;;;12.68;;
22429;SDS011;11382;48.086;11.632;2023-02-23T06:09:04;21.55;;;11.77;;
22429;SDS011;11382;48.086;11.632;2023-02-23T06:11:35;22.27;;;11.88;;
22429;SDS011;11382;48.086;11.632;2023-02-23T06:14:04;22.20;;;12.00;;
22429;SDS011;11382;48.086;11.632;2023-02-23T06:16:32;23.92;;;12.27;;
22429;SDS011;11382;48.086;11.632;2023-02-23T06:19:01;26.23;;;12.65;;
22429;SDS011;11382;48.086;11.632;2023-02-23T06:21:29;22.30;;;12.82;;
22429;SDS011;11382;48.086;11.632;2023-02-23T06:23:59;22.73;;;12.50;;
22429;SDS011;11382;48.086;11.632;2023-02-23T06:26:28;22.70;;;12.43;;
22429;SDS011;11382;48.086;11.632;2023-02-23T06:28:56;23.45;;;12.52;;
22429;SDS011;11382;48.086;11.632;2023-02-23T06:31:26;26.13;;;13.20;;
22429;SDS011;11382;48.086;11.632;2023-02-23T06:33:57;24.33;;;11.93;;
22429;SDS011;11382;48.086;11.632;2023-02-23T06:36:27;27.02;;;13.25;;
22429;SDS011;11382;48.086;11.632;2023-02-23T06:38:58;20.15;;;11.90;;
22429;SDS011;11382;48.086;11.632;2023-02-23T06:41:27;22.00;;;11.63;;
22429;SDS011;11382;48.086;11.632;2023-02-23T06:43:56;22.38;;;12.45;;
22429;SDS011;11382;48.086;11.632;2023-02-23T06:46:25;21.77;;;12.48;;
22429;SDS011;11382;48.086;11.632;2023-02-23T06:48:53;23.45;;;12.25;;
22429;SDS011;11382;48.086;11.632;2023-02-23T06:51:22;21.58;;;12.05;;
22429;SDS011;11382;48.086;11.632;2023-02-23T06:53:50;22.70;;;12.07;;
22429;SDS011;11382;48.086;11.632;2023-02-23T06:56:18;26.88;;;13.02;;
22429;SDS011;11382;48.086;11.632;2023-02-23T06:58:47;23.02;;;12.38;;
22429;SDS011;11382;48.086;11.632;2023-02-23T07:01:15;25.25;;;13.30;;
22429;SDS011;11382;48.086;11.632;2023-02-23T07:03:45;22.73;;;12.65;;
22429;SDS011;11382;48.086;11.632;2023-02-23T07:06:14;21.95;;;12.63;;
22429;SDS011;11382;48.086;11.632;2023-02-23T07:08:42;19.42;;;11.50;;
22429;SDS011;11382;48.086;11.632;2023-02-23T07:11:11;22.55;;;11.52;;
22429;SDS011;11382;48.086;11.632;2023-02-23T07:13:41;21.73;;;12.35;;
22429;SDS011;11382;48.086;11.632;2023-02-23T07:16:09;21.73;;;12.10;;
22429;SDS011;11382;48.086;11.632;2023-02-23T07:18:40;21.20;;;12.40;;
22429;SDS011;11382;48.086;11.632;2023-02-23T07:21:09;22.75;;;13.00;;
22429;SDS011;11382;48.086;11.632;2023-02-23T07:23:38;22.00;;;12.27;;
22429;SDS011;11382;48.086;11.632;2023-02-23T07:26:06;21.40;;;11.88;;
22429;SDS011;11382;48.086;11.632;2023-02-23T07:28:35;20.75;;;12.52;;
22429;SDS011;11382;48.086;11.632;2023-02-23T07:31:03;22.77;;;12.00;;
22429;SDS011;11382;48.086;11.632;2023-02-23T07:33:31;21.25;;;12.43;;
22429;SDS011;11382;48.086;11.632;2023-02-23T07:36:00;21.83;;;12.20;;
22429;SDS011;11382;48.086;11.632;2023-02-23T07:38:29;20.70;;;12.55;;
22429;SDS011;11382;48.086;11.632;2023-02-23T07:40:57;21.52;;;13.50;;
22429;SDS011;11382;48.086;11.632;2023-02-23T07:43:25;23.20;;;12.35;;
22429;SDS011;11382;48.086;11.632;2023-02-23T07:45:53;20.90;;;12.20;;
22429;SDS011;11382;48.086;11.632;2023-02-23T07:48:25;19.00;;;11.90;;
22429;SDS011;11382;48.086;11.632;2023-02-23T07:50:53;20.48;;;12.45;;
22429;SDS011;11382;48.086;11.632;2023-02-23T07:53:24;22.25;;;12.55;;
22429;SDS011;11382;48.086;11.632;2023-02-23T07:55:58;20.75;;;12.70;;
22429;SDS011;11382;48.086;11.632;2023-02-23T07:58:26;20.27;;;12.75;;
22429;SDS011;11382;48.086;11.632;2023-02-23T08:00:55;22.23;;;12.10;;
22429;SDS011;11382;48.086;11.632;2023-02-23T08:03:24;21.17;;;12.13;;
22429;SDS011;11382;48.086;11.632;2023-02-23T08:05:52;23.30;;;12.30;;
22429;SDS011;11382;48.086;11.632;2023-02-23T08:08:20;19.05;;;11.82;;
22429;SDS011;11382;48.086;11.632;2023-02-23T08:10:48;21.50;;;12.75;;
22429;SDS011;11382;48.086;11.632;2023-02-23T08:13:18;19.05;;;12.18;;
22429;SDS011;11382;48.086;11.632;2023-02-23T08:15:46;18.17;;;11.57;;
22429;SDS011;11382;48.086;11.632;2023-02-23T08:18:14;19.98;;;12.32;;
22429;SDS011;11382;48.086;11.632;2023-02-23T08:20:43;19.55;;;11.55;;
22429;SDS011;11382;48.086;11.632;2023-02-23T08:23:11;22.95;;;12.27;;
22429;SDS011;11382;48.086;11.632;2023-02-23T08:25:39;23.52;;;12.25;;
22429;SDS011;11382;48.086;11.632;2023-02-23T08:28:07;19.77;;;12.35;;
22429;SDS011;11382;48.086;11.632;2023-02-23T08:30:39;17.25;;;11.23;;
22429;SDS011;11382;48.086;11.632;2023-02-23T08:33:08;21.38;;;12.15;;
22429;SDS011;11382;48.086;11.632;2023-02-23T08:35:39;22.30;;;12.35;;
22429;SDS011;11382;48.086;11.632;2023-02-23T08:38:08;19.35;;;11.68;;
22429;SDS011;11382;48.086;11.632;2023-02-23T08:40:37;20.02;;;11.65;;
22429;SDS011;11382;48.086;11.632;2023-02-23T08:43:06;22.08;;;12.52;;
22429;SDS011;11382;48.086;11.632;2023-02-23T08:45:34;21.10;;;11.45;;
22429;SDS011;11382;48.086;11.632;2023-02-23T08:48:04;19.27;;;12.10;;
22429;SDS011;11382;48.086;11.632;2023-02-23T08:50:35;23.40;;;11.93;;
22429;SDS011;11382;48.086;11.632;2023-02-23T08:53:05;22.17;;;11.93;;
22429;SDS011;11382;48.086;11.632;2023-02-23T08:55:34;20.27;;;12.07;;
22429;SDS011;11382;48.086;11.632;2023-02-23T08:58:04;17.95;;;11.68;;
22429;SDS011;11382;48.086;11.632;2023-02-23T09:00:34;19.90;;;11.88;;
22429;SDS011;11382;48.086;11.632;2023-02-23T09:03:04;20.58;;;12.18;;
22429;SDS011;11382;48.086;11.632;2023-02-23T09:05:35;18.83;;;12.02;;
22429;SDS011;11382;48.086;11.632;2023-02-23T09:08:03;19.58;;;11.52;;
22429;SDS011;11382;48.086;11.632;2023-02-23T09:10:32;23.17;;;12.23;;
22429;SDS011;11382;48.086;11.632;2023-02-23T09:13:01;23.58;;;11.68;;
22429;SDS011;11382;48.086;11.632;2023-02-23T09:15:29;22.40;;;11.80;;
22429;SDS011;11382;48.086;11.632;2023-02-23T09:17:59;19.20;;;11.98;;
22429;SDS011;11382;48.086;11.632;2023-02-23T09:20:29;18.23;;;11.05;;
22429;SDS011;11382;48.086;11.632;2023-02-23T09:22:58;21.45;;;12.48;;
22429;SDS011;11382;48.086;11.632;2023-02-23T09:25:26;19.00;;;11.70;;
22429;SDS011;11382;48.086;11.632;2023-02-23T09:27:57;19.73;;;11.40;;
22429;SDS011;11382;48.086;11.632;2023-02-23T09:30:26;18.80;;;11.20;;
22429;SDS011;11382;48.086;11.632;2023-02-23T09:32:54;19.25;;;11.68;;
22429;SDS011;11382;48.086;11.632;2023-02-23T09:35:23;17.88;;;11.23;;
22429;SDS011;11382;48.086;11.632;2023-02-23T09:37:53;21.45;;;11.23;;
22429;SDS011;11382;48.086;11.632;2023-02-23T09:40:23;19.92;;;10.23;;
22429;SDS011;11382;48.086;11.632;2023-02-23T09:42:55;18.63;;;9.40;;
22429;SDS011;11382;48.086;11.632;2023-02-23T09:45:32;16.73;;;9.75;;
22429;SDS011;11382;48.086;11.632;2023-02-23T09:48:11;20.52;;;10.35;;
22429;SDS011;11382;48.086;11.632;2023-02-23T09:50:44;14.98;;;9.85;;
22429;SDS011;11382;48.086;11.632;2023-02-23T09:53:23;15.43;;;9.43;;
22429;SDS011;11382;48.086;11.632;2023-02-23T09:55:59;17.10;;;10.40;;
22429;SDS011;11382;48.086;11.632;2023-02-23T09:58:32;14.35;;;9.50;;
22429;SDS011;11382;48.086;11.632;2023-02-23T10:01:13;13.65;;;8.70;;
22429;SDS011;11382;48.086;11.632;2023-02-23T10:03:55;15.18;;;9.05;;
22429;SDS011;11382;48.086;11.632;2023-02-23T10:06:31;13.27;;;8.15;;
22429;SDS011;11382;48.086;11.632;2023-02-23T10:09:04;14.25;;;8.13;;
22429;SDS011;11382;48.086;11.632;2023-02-23T10:11:42;12.63;;;7.40;;
22429;SDS011;11382;48.086;11.632;2023-02-23T10:14:19;12.38;;;7.90;;
22429;SDS011;11382;48.086;11.632;2023-02-23T10:16:57;10.73;;;7.38;;
22429;SDS011;11382;48.086;11.632;2023-02-23T10:19:35;11.85;;;8.15;;
22429;SDS011;11382;48.086;11.632;2023-02-23T10:22:10;12.98;;;7.47;;
22429;SDS011;11382;48.086;11.632;2023-02-23T10:24:43;15.90;;;7.65;;
22429;SDS011;11382;48.086;11.632;2023-02-23T10:27:18;11.77;;;7.43;;
22429;SDS011;11382;48.086;11.632;2023-02-23T10:29:50;11.48;;;7.25;;
22429;SDS011;11382;48.086;11.632;2023-02-23T10:32:22;11.18;;;7.55;;
22429;SDS011;11382;48.086;11.632;2023-02-23T10:34:59;11.02;;;7.22;;
22429;SDS011;11382;48.086;11.632;2023-02-23T10:37:27;14.23;;;6.85;;
22429;SDS011;11382;48.086;11.632;2023-02-23T10:40:03;12.55;;;6.80;;
22429;SDS011;11382;48.086;11.632;2023-02-23T10:42:33;13.30;;;7.43;;
22429;SDS011;11382;48.086;11.632;2023-02-23T10:45:01;9.45;;;6.00;;
22429;SDS011;11382;48.086;11.632;2023-02-23T10:47:30;11.40;;;7.05;;
22429;SDS011;11382;48.086;11.632;2023-02-23T10:50:01;10.60;;;7.00;;
22429;SDS011;11382;48.086;11.632;2023-02-23T10:52:32;10.95;;;7.05;;
22429;SDS011;11382;48.086;11.632;2023-02-23T10:55:18;9.45;;;6.63;;
22429;SDS011;11382;48.086;11.632;2023-02-23T10:57:50;8.15;;;5.82;;
22429;SDS011;11382;48.086;11.632;2023-02-23T11:00:29;10.30;;;5.85;;
22429;SDS011;11382;48.086;11.632;2023-02-23T11:03:00;9.32;;;6.28;;
22429;SDS011;11382;48.086;11.632;2023-02-23T11:05:31;10.15;;;6.15;;
22429;SDS011;11382;48.086;11.632;2023-02-23T11:11:03;10.68;;;6.18;;
22429;SDS011;11382;48.086;11.632;2023-02-23T11:13:36;7.20;;;5.63;;
22429;SDS011;11382;48.086;11.632;2023-02-23T11:16:07;8.73;;;6.05;;
22429;SDS011;11382;48.086;11.632;2023-02-23T11:18:39;8.80;;;5.68;;
22429;SDS011;11382;48.086;11.632;2023-02-23T11:21:11;8.90;;;6.15;;
22429;SDS011;11382;48.086;11.632;2023-02-23T11:23:44;8.88;;;5.95;;
22429;SDS011;11382;48.086;11.632;2023-02-23T11:26:25;8.02;;;5.68;;
22429;SDS011;11382;48.086;11.632;2023-02-23T11:28:57;11.23;;;6.00;;
22429;SDS011;11382;48.086;11.632;2023-02-23T11:31:31;10.55;;;6.22;;
22429;SDS011;11382;48.086;11.632;2023-02-23T11:34:01;12.13;;;6.30;;
22429;SDS011;11382;48.086;11.632;2023-02-23T11:36:33;7.97;;;5.28;;
22429;SDS011;11382;48.086;11.632;2023-02-23T11:39:05;7.78;;;5.32;;
22429;SDS011;11382;48.086;11.632;2023-02-23T11:42:01;7.57;;;4.97;;
22429;SDS011;11382;48.086;11.632;2023-02-23T11:44:36;8.38;;;5.05;;
22429;SDS011;11382;48.086;11.632;2023-02-23T11:47:05;9.20;;;5.13;;
22429;SDS011;11382;48.086;11.632;2023-02-23T11:49:44;7.28;;;5.25;;
22429;SDS011;11382;48.086;11.632;2023-02-23T11:52:15;7.55;;;4.72;;
22429;SDS011;11382;48.086;11.632;2023-02-23T11:54:48;6.43;;;4.53;;
22429;SDS011;11382;48.086;11.632;2023-02-23T11:57:22;6.90;;;4.78;;
22429;SDS011;11382;48.086;11.632;2023-02-23T11:59:52;8.75;;;4.82;;
22429;SDS011;11382;48.086;11.632;2023-02-23T12:02:26;7.43;;;4.95;;
22429;SDS011;11382;48.086;11.632;2023-02-23T12:05:01;7.20;;;4.33;;
22429;SDS011;11382;48.086;11.632;2023-02-23T12:07:38;8.38;;;4.88;;
22429;SDS011;11382;48.086;11.632;2023-02-23T12:10:15;7.57;;;5.00;;
22429;SDS011;11382;48.086;11.632;2023-02-23T12:12:53;9.68;;;4.85;;
22429;SDS011;11382;48.086;11.632;2023-02-23T12:15:28;10.00;;;5.00;;
22429;SDS011;11382;48.086;11.632;2023-02-23T12:18:03;7.07;;;4.90;;
22429;SDS011;11382;48.086;11.632;2023-02-23T12:20:41;5.05;;;3.60;;
22429;SDS011;11382;48.086;11.632;2023-02-23T12:23:14;6.82;;;3.33;;
22429;SDS011;11382;48.086;11.632;2023-02-23T12:25:46;4.30;;;3.17;;
22429;SDS011;11382;48.086;11.632;2023-02-23T12:28:21;5.60;;;3.50;;
22429;SDS011;11382;48.086;11.632;2023-02-23T12:30:57;5.90;;;3.67;;
22429;SDS011;11382;48.086;11.632;2023-02-23T12:33:32;5.07;;;3.72;;
22429;SDS011;11382;48.086;11.632;2023-02-23T12:36:08;3.47;;;2.50;;
22429;SDS011;11382;48.086;11.632;2023-02-23T12:38:45;4.78;;;2.80;;
22429;SDS011;11382;48.086;11.632;2023-02-23T12:41:19;5.90;;;3.38;;
22429;SDS011;11382;48.086;11.632;2023-02-23T12:44:00;5.57;;;3.55;;
22429;SDS011;11382;48.086;11.632;2023-02-23T12:46:40;4.50;;;2.90;;
22429;SDS011;11382;48.086;11.632;2023-02-23T12:49:16;6.10;;;3.03;;
22429;SDS011;11382;48.086;11.632;2023-02-23T12:51:52;4.00;;;3.00;;
22429;SDS011;11382;48.086;11.632;2023-02-23T12:54:27;5.53;;;3.47;;
22429;SDS011;11382;48.086;11.632;2023-02-23T12:56:57;4.90;;;3.30;;
22429;SDS011;11382;48.086;11.632;2023-02-23T12:59:46;8.23;;;5.22;;
22429;SDS011;11382;48.086;11.632;2023-02-23T13:02:53;8.48;;;5.80;;
22429;SDS011;11382;48.086;11.632;2023-02-23T13:05:41;9.98;;;5.70;;
22429;SDS011;11382;48.086;11.632;2023-02-23T13:08:18;11.23;;;5.55;;
22429;SDS011;11382;48.086;11.632;2023-02-23T13:10:54;8.77;;;5.10;;
22429;SDS011;11382;48.086;11.632;2023-02-23T13:13:33;9.65;;;5.72;;
22429;SDS011;11382;48.086;11.632;2023-02-23T13:16:13;9.90;;;5.65;;
22429;SDS011;11382;48.086;11.632;2023-02-23T13:18:47;9.73;;;5.72;;
22429;SDS011;11382;48.086;11.632;2023-02-23T13:21:21;11.90;;;6.30;;
22429;SDS011;11382;48.086;11.632;2023-02-23T13:23:56;8.00;;;5.32;;
22429;SDS011;11382;48.086;11.632;2023-02-23T13:26:31;8.60;;;5.38;;
22429;SDS011;11382;48.086;11.632;2023-02-23T13:29:05;9.98;;;5.30;;
22429;SDS011;11382;48.086;11.632;2023-02-23T13:31:42;8.43;;;5.07;;
22429;SDS011;11382;48.086;11.632;2023-02-23T13:34:12;7.40;;;4.80;;
22429;SDS011;11382;48.086;11.632;2023-02-23T13:36:47;7.13;;;5.15;;
22429;SDS011;11382;48.086;11.632;2023-02-23T13:42:15;7.50;;;5.10;;
22429;SDS011;11382;48.086;11.632;2023-02-23T13:48:05;10.15;;;5.85;;
22429;SDS011;11382;48.086;11.632;2023-02-23T13:50:46;8.73;;;5.88;;
22429;SDS011;11382;48.086;11.632;2023-02-23T13:53:27;9.98;;;4.80;;
22429;SDS011;11382;48.086;11.632;2023-02-23T13:56:00;8.02;;;4.68;;
22429;SDS011;11382;48.086;11.632;2023-02-23T13:58:34;9.63;;;5.47;;
22429;SDS011;11382;48.086;11.632;2023-02-23T14:01:13;14.25;;;4.88;;
22429;SDS011;11382;48.086;11.632;2023-02-23T14:03:52;9.15;;;4.65;;
22429;SDS011;11382;48.086;11.632;2023-02-23T14:06:23;7.95;;;5.10;;
22429;SDS011;11382;48.086;11.632;2023-02-23T14:08:56;5.72;;;4.22;;
22429;SDS011;11382;48.086;11.632;2023-02-23T14:11:27;5.53;;;4.07;;
22429;SDS011;11382;48.086;11.632;2023-02-23T14:14:03;6.70;;;3.65;;
22429;SDS011;11382;48.086;11.632;2023-02-23T14:16:31;6.28;;;4.40;;
22429;SDS011;11382;48.086;11.632;2023-02-23T14:19:08;7.90;;;3.95;;
22429;SDS011;11382;48.086;11.632;2023-02-23T14:21:42;7.50;;;4.25;;
22429;SDS011;11382;48.086;11.632;2023-02-23T14:24:17;6.95;;;3.80;;
22429;SDS011;11382;48.086;11.632;2023-02-23T14:30:11;6.10;;;3.72;;
22429;SDS011;11382;48.086;11.632;2023-02-23T14:32:46;7.60;;;2.78;;
22429;SDS011;11382;48.086;11.632;2023-02-23T14:35:36;5.35;;;2.63;;
22429;SDS011;11382;48.086;11.632;2023-02-23T14:38:21;6.15;;;2.20;;
22429;SDS011;11382;48.086;11.632;2023-02-23T14:41:13;4.38;;;2.67;;
22429;SDS011;11382;48.086;11.632;2023-02-23T14:43:42;3.42;;;2.17;;
22429;SDS011;11382;48.086;11.632;2023-02-23T14:46:12;4.43;;;2.47;;
22429;SDS011;11382;48.086;11.632;2023-02-23T14:48:54;3.65;;;2.05;;
22429;SDS011;11382;48.086;11.632;2023-02-23T14:51:32;3.35;;;2.20;;
22429;SDS011;11382;48.086;11.632;2023-02-23T14:54:09;2.95;;;2.00;;
22429;SDS011;11382;48.086;11.632;2023-02-23T14:56:46;6.95;;;2.63;;
22429;SDS011;11382;48.086;11.632;2023-02-23T14:59:17;3.78;;;2.15;;
22429;SDS011;11382;48.086;11.632;2023-02-23T15:01:47;4.18;;;2.08;;
22429;SDS011;11382;48.086;11.632;2023-02-23T15:04:17;3.75;;;2.28;;
22429;SDS011;11382;48.086;11.632;2023-02-23T15:06:50;5.82;;;2.00;;
22429;SDS011;11382;48.086;11.632;2023-02-23T15:09:24;4.53;;;2.05;;
22429;SDS011;11382;48.086;11.632;2023-02-23T15:11:59;4.40;;;2.03;;
22429;SDS011;11382;48.086;11.632;2023-02-23T15:14:34;7.28;;;2.00;;
22429;SDS011;11382;48.086;11.632;2023-02-23T15:17:04;2.80;;;1.77;;
22429;SDS011;11382;48.086;11.632;2023-02-23T15:19:36;3.00;;;1.85;;
22429;SDS011;11382;48.086;11.632;2023-02-23T15:22:06;2.47;;;1.60;;
22429;SDS011;11382;48.086;11.632;2023-02-23T15:24:39;4.10;;;1.90;;